Time;durP1;ratioP1;P1;durP2;ratioP2;P2;SDS_P1;SDS_P2;PMS_P1;PMS_P2;Temp;Humidity;BMP_temperature;BMP_pressure;BME280_temperature;BME280_humidity;BME280_pressure;Samples;Min_cycle;Max_cycle;Signal;HPM_P1;HPM_P2
2022/04/08 00:12:18;;;;;;;5.27;1.60;;;11.40;68.20;;;11.68;43.86;97223.38;5768274;23;98294;-84
2022/04/08 00:18:30;;;;;;;4.10;1.77;;;9.30;66.60;;;11.60;44.18;97218.84;4963685;28;115181;-75
2022/04/08 01:20:13;;;;;;;5.50;2.00;;;11.00;66.80;;;11.38;44.08;97267.28;5665845;23;98422;-75
2022/04/08 01:26:22;;;;;;;6.27;1.77;;;9.70;66.50;;;11.33;44.31;97282.16;4962791;28;114997;-74
2022/04/08 01:32:31;;;;;;;4.67;1.73;;;9.70;66.70;;;11.29;43.88;97270.22;4962497;28;124818;-74
2022/04/08 01:38:41;;;;;;;7.03;1.73;;;11.10;66.30;;;11.19;43.56;97281.78;4962654;28;115027;-74
2022/04/08 01:44:52;;;;;;;4.00;1.60;;;11.00;66.40;;;11.15;43.72;97292.75;4962146;28;124794;-74
2022/04/08 01:51:01;;;;;;;4.60;1.63;;;10.40;65.90;;;11.13;44.56;97288.75;4962763;28;115083;-75
2022/04/08 01:57:10;;;;;;;2.70;1.40;;;8.90;66.10;;;11.18;44.40;97286.53;4962038;28;124746;-75
2022/04/08 04:53:21;;;;;;;3.40;1.60;;;10.00;66.30;;;10.50;44.60;97384.00;5972502;23;98990;-86
2022/04/08 05:41:47;;;;;;;3.60;1.50;;;10.60;66.80;;;10.94;44.41;97413.75;4961960;28;114963;-76
2022/04/08 05:48:02;;;;;;;2.17;1.40;;;9.30;66.80;;;10.94;44.57;97409.03;4962139;28;124781;-75
2022/04/08 05:54:11;;;;;;;2.50;1.40;;;8.10;65.90;;;10.93;44.42;97417.66;4962569;28;115014;-77
2022/04/08 06:39:23;;;;;;;5.03;1.53;;;10.40;69.60;;;10.81;46.44;97366.00;5789890;23;98754;-74
2022/04/08 06:45:33;;;;;;;2.80;1.43;;;10.30;69.90;;;10.81;46.74;97371.53;4941973;28;115202;-75
2022/04/08 06:51:42;;;;;;;3.07;1.50;;;10.30;70.50;;;10.77;47.09;97376.97;4941778;28;125195;-75
2022/04/08 06:57:51;;;;;;;4.47;1.87;;;10.30;70.90;;;10.64;47.92;97375.38;4940331;28;116062;-92
2022/04/08 07:00:39;;;;;;;2.13;1.37;;;10.30;71.20;;;10.61;47.97;97368.59;5060187;23;114376;-89
2022/04/08 07:03:05;;;;;;;1.93;1.10;;;10.20;71.60;;;10.60;48.49;97375.25;4905765;28;123111;-89
2022/04/08 07:05:32;;;;;;;3.07;1.50;;;10.10;72.40;;;10.60;48.44;97380.75;4910646;28;124026;-90
2022/04/08 07:11:26;;;;;;;4.03;2.37;;;10.10;72.80;;;10.47;49.12;97373.66;4927340;28;113109;-89
2022/04/08 07:14:31;;;;;;;4.13;2.23;;;10.00;72.90;;;10.42;49.48;97368.34;4917764;28;122841;-89
2022/04/08 07:17:02;;;;;;;2.80;1.57;;;10.10;73.50;;;10.41;49.65;97364.00;4904491;28;122847;-87
2022/04/08 07:19:33;;;;;;;3.63;1.63;;;10.00;73.80;;;10.37;49.99;97363.91;4919738;28;113808;-88
2022/04/08 07:23:02;;;;;;;4.83;1.60;;;10.00;74.00;;;10.32;50.40;97363.31;4918184;28;113383;-88
2022/04/08 07:26:06;;;;;;;3.43;1.40;;;9.90;75.40;;;10.26;50.31;97357.19;4921803;28;124193;-89
2022/04/08 07:28:55;;;;;;;1.80;1.27;;;9.90;75.80;;;10.20;50.77;97353.03;4898903;28;124303;-88
2022/04/08 07:31:43;;;;;;;3.00;1.27;;;9.80;76.10;;;10.21;50.70;97340.03;4904287;28;111959;-88
2022/04/08 07:34:28;;;;;;;2.17;1.17;;;9.80;76.20;;;10.25;50.96;97343.72;4920312;28;113277;-89
2022/04/08 07:37:13;;;;;;;2.00;1.20;;;9.80;76.40;;;10.29;50.95;97347.44;4929370;28;123581;-89
2022/04/08 07:40:00;;;;;;;1.20;1.00;;;9.80;76.80;;;10.27;51.24;97345.03;4896848;28;122755;-90
2022/04/08 07:42:29;;;;;;;3.20;1.33;;;9.80;76.80;;;10.24;51.07;97331.09;4911760;28;114072;-90
2022/04/08 07:48:36;;;;;;;1.67;1.00;;;9.80;77.20;;;10.24;51.36;97331.09;4930353;28;124488;-90
2022/04/08 07:51:06;;;;;;;1.33;0.90;;;9.70;77.40;;;10.25;51.42;97329.94;4931368;28;123576;-91
2022/04/08 07:57:17;;;;;;;2.43;1.20;;;9.80;77.70;;;10.21;51.95;97326.25;4932275;28;115291;-90
2022/04/08 07:59:43;;;;;;;1.83;1.27;;;9.70;78.00;;;10.23;52.09;97315.66;4909990;28;124302;-90
2022/04/08 08:03:07;;;;;;;2.13;1.20;;;9.80;78.30;;;10.21;51.97;97316.03;4925298;28;123835;-89
2022/04/08 08:05:34;;;;;;;2.53;1.20;;;9.80;78.20;;;10.23;52.02;97315.66;4915449;28;112896;-91
2022/04/08 08:08:58;;;;;;;1.77;1.10;;;9.70;78.40;;;10.30;52.02;97305.69;4915257;28;111944;-90
2022/04/08 08:11:43;;;;;;;3.17;1.40;;;9.80;78.80;;;10.37;52.25;97296.84;4921190;28;123828;-89
2022/04/08 08:14:11;;;;;;;1.30;1.20;;;9.80;79.40;;;10.40;52.43;97293.38;4896368;28;122691;-90
2022/04/08 08:16:40;;;;;;;1.43;1.20;;;9.80;79.40;;;10.46;52.46;97291.19;4912535;28;113998;-89
2022/04/08 08:19:28;;;;;;;1.77;0.97;;;9.90;79.50;;;10.51;52.33;97286.22;4927975;28;112536;-90
2022/04/08 08:22:13;;;;;;;2.30;1.23;;;10.00;78.60;;;10.55;52.44;97283.53;4905446;28;123609;-89
2022/04/08 08:24:41;;;;;;;1.10;0.90;;;10.00;78.70;;;10.56;52.50;97283.22;4906643;28;123497;-90
2022/04/08 08:27:48;;;;;;;1.77;1.27;;;10.00;78.90;;;10.59;52.40;97276.97;4912341;28;112709;-89
2022/04/08 08:30:18;;;;;;;2.73;1.23;;;10.10;79.00;;;10.60;52.77;97266.72;4924359;28;114970;-90
2022/04/08 08:32:49;;;;;;;2.40;0.93;;;10.10;79.70;;;10.63;52.86;97270.75;4929536;28;123469;-90
2022/04/08 08:35:25;;;;;;;1.03;0.90;;;10.10;79.20;;;10.61;52.93;97263.63;4931932;28;123441;-89
2022/04/08 08:37:55;;;;;;;2.43;1.20;;;10.10;79.20;;;10.60;52.71;97259.25;4896803;28;112636;-89
2022/04/08 08:41:19;;;;;;;1.10;0.87;;;12.30;81.40;;;10.61;52.74;97258.09;4897638;28;112058;-91
2022/04/08 08:43:49;;;;;;;1.00;0.90;;;10.10;79.40;;;10.64;52.49;97250.25;4923494;28;123784;-89
2022/04/08 08:46:22;;;;;;;1.47;0.90;;;10.70;80.10;;;10.67;52.86;97247.63;4928515;28;123486;-90
2022/04/08 08:49:28;;;;;;;1.77;0.87;;;10.20;79.80;;;10.73;53.00;97248.16;4917104;28;113419;-90
2022/04/08 08:52:18;;;;;;;1.43;1.00;;;10.10;79.90;;;10.77;52.96;97243.53;4929847;28;114446;-90
2022/04/08 08:54:51;;;;;;;1.73;1.00;;;10.20;80.00;;;10.82;53.31;97240.50;4914305;28;124054;-91
2022/04/08 08:57:39;;;;;;;2.13;1.27;;;10.20;80.10;;;10.86;53.25;97237.88;4931444;28;124151;-91
2022/04/08 09:00:13;;;;;;;1.30;1.00;;;10.20;80.10;;;10.92;52.93;97222.63;4917690;28;115056;-89
2022/04/08 09:02:41;;;;;;;2.70;1.30;;;10.30;80.20;;;10.95;52.90;97221.91;4888094;28;113336;-91
2022/04/08 09:05:20;;;;;;;1.20;1.00;;;10.30;80.20;;;11.00;52.75;97218.91;4911816;28;97217;-89
2022/04/08 09:08:05;;;;;;;1.93;1.03;;;10.40;80.40;;;11.00;53.17;97219.69;4923905;28;124201;-90
2022/04/08 09:10:52;;;;;;;0.93;0.83;;;10.60;80.50;;;11.05;53.26;97222.19;4923428;28;112787;-89
2022/04/08 09:13:21;;;;;;;2.00;1.10;;;10.40;81.10;;;11.03;53.11;97205.16;4897010;28;112861;-90
2022/04/08 09:16:01;;;;;;;1.00;0.90;;;10.60;80.70;;;11.03;53.33;97202.41;4885059;28;122051;-90
2022/04/08 09:18:48;;;;;;;3.10;1.67;;;10.50;80.60;;;11.01;53.14;97199.19;4901568;28;123791;-90
2022/04/08 09:21:23;;;;;;;1.53;1.00;;;10.40;80.50;;;11.02;53.28;97189.75;4897843;28;114045;-91
2022/04/08 09:24:46;;;;;;;1.10;0.90;;;10.40;80.70;;;11.03;53.53;97177.53;4894202;28;112271;-89
2022/04/08 09:27:33;;;;;;;1.10;1.00;;;10.50;80.80;;;11.03;53.21;97163.72;4910317;28;124045;-90
2022/04/08 09:33:53;;;;;;;1.17;0.90;;;10.50;81.70;;;10.92;53.47;97151.59;4914518;28;114353;-90
2022/04/08 09:36:32;;;;;;;0.90;0.83;;;10.40;81.00;;;10.90;53.81;97151.13;4922127;28;113302;-91
2022/04/08 09:38:59;;;;;;;1.10;1.00;;;10.40;80.90;;;10.88;53.69;97134.13;4913111;28;123916;-90
2022/04/08 09:41:50;;;;;;;1.53;0.97;;;10.40;80.90;;;10.91;53.70;97127.88;4895550;28;124100;-89
2022/04/08 09:44:24;;;;;;;1.30;0.90;;;10.40;80.90;;;10.95;53.38;97128.75;4925734;28;114664;-91
2022/04/08 09:47:09;;;;;;;1.10;1.00;;;10.40;80.90;;;11.01;53.29;97121.00;4896299;28;114548;-89
2022/04/08 09:50:16;;;;;;;1.63;0.97;;;10.40;81.00;;;11.00;53.76;97111.91;4902415;28;123582;-89
2022/04/08 09:53:05;;;;;;;1.00;0.80;;;10.50;81.10;;;10.99;53.76;97113.09;4917225;28;122709;-90
2022/04/08 09:55:34;;;;;;;1.07;0.80;;;10.40;81.20;;;10.99;53.86;97104.00;4903464;28;113670;-88
2022/04/08 09:58:23;;;;;;;1.07;0.97;;;10.50;81.30;;;10.99;53.75;97082.69;4904039;28;111725;-90
2022/04/08 10:01:11;;;;;;;1.00;0.90;;;10.40;81.20;;;11.00;53.20;97078.75;4912719;28;124669;-91
2022/04/08 10:03:39;;;;;;;1.23;0.90;;;10.40;81.20;;;10.98;53.96;97072.78;4906552;28;122631;-88
2022/04/08 10:06:07;;;;;;;0.90;0.80;;;10.40;81.20;;;10.96;53.30;97066.84;4904313;28;114236;-88
2022/04/08 10:08:54;;;;;;;3.50;0.90;;;10.50;81.30;;;10.96;53.57;97047.50;4912987;28;113805;-92
2022/04/08 10:12:19;;;;;;;1.10;0.80;;;10.40;81.20;;;10.98;53.38;97045.16;4907325;28;123544;-90
2022/04/08 10:15:14;;;;;;;0.80;0.80;;;10.40;81.20;;;10.97;53.35;97040.78;4924240;28;124507;-90
2022/04/08 10:18:04;;;;;;;1.00;0.80;;;10.40;81.10;;;10.96;53.46;97030.09;4894034;28;112805;-90
2022/04/08 10:20:35;;;;;;;1.00;0.90;;;10.40;80.90;;;10.96;53.31;97025.38;4927551;28;114006;-90
2022/04/08 10:23:14;;;;;;;1.00;0.90;;;10.40;81.00;;;11.00;53.60;97011.66;4932760;28;123446;-90
2022/04/08 10:25:50;;;;;;;1.23;0.80;;;10.40;81.00;;;11.01;53.45;97008.50;4914739;28;123184;-91
2022/04/08 10:28:38;;;;;;;0.90;0.80;;;10.40;81.30;;;11.04;53.49;96996.75;4921804;28;112412;-90
2022/04/08 10:31:28;;;;;;;0.90;0.80;;;10.40;81.30;;;11.02;53.69;97001.03;4920482;28;114706;-90
2022/04/08 10:34:15;;;;;;;1.10;1.00;;;10.40;81.30;;;10.99;53.46;96997.03;4913303;28;123412;-90
2022/04/08 10:36:46;;;;;;;0.80;0.80;;;10.40;81.30;;;10.98;53.71;96994.63;4924638;28;122418;-90
2022/04/08 10:39:16;;;;;;;1.30;1.00;;;10.40;81.40;;;10.95;54.07;96989.81;4915328;28;113878;-90
2022/04/08 10:42:04;;;;;;;1.77;0.90;;;10.40;81.60;;;10.96;54.01;96975.66;4929301;28;114707;-90
2022/04/08 10:44:36;;;;;;;0.80;0.70;;;10.40;81.80;;;11.01;54.33;96972.59;4883092;28;121875;-89
2022/04/08 10:47:17;;;;;;;1.37;0.90;;;10.40;82.10;;;11.02;54.11;96962.34;4918923;28;123599;-90
2022/04/08 10:50:41;;;;;;;1.27;1.17;;;10.40;82.20;;;10.97;54.16;96959.88;4929655;28;113923;-91
2022/04/08 10:53:13;;;;;;;1.47;1.00;;;10.40;82.50;;;10.87;54.53;96955.69;4922756;28;113292;-90
2022/04/08 10:56:18;;;;;;;0.87;0.83;;;10.30;82.50;;;10.81;54.43;96930.31;4909572;28;123300;-90
2022/04/08 10:58:49;;;;;;;1.30;1.20;;;10.30;82.40;;;10.83;54.84;96938.25;4920500;28;123640;-89
2022/04/08 11:01:24;;;;;;;1.27;0.83;;;10.30;82.60;;;10.86;54.80;96920.94;4916319;28;113636;-90
2022/04/08 11:08:10;;;;;;;1.30;0.93;;;10.30;82.80;;;10.84;55.16;96887.34;4925933;28;124172;-89
2022/04/08 11:11:26;;;;;;;2.17;1.00;;;10.30;83.10;;;10.85;54.72;96935.91;4910016;28;123568;-90
2022/04/08 11:17:35;;;;;;;1.10;1.00;;;10.30;82.90;;;10.84;55.27;96856.97;4933378;28;114937;-90
2022/04/08 11:20:10;;;;;;;2.10;1.20;;;10.30;83.00;;;10.76;54.91;96915.97;4930605;28;123737;-89
2022/04/08 11:22:54;;;;;;;1.07;0.90;;;10.30;83.10;;;10.71;55.21;96885.88;4914715;28;123472;-91
2022/04/08 11:25:58;;;;;;;1.10;1.00;;;10.20;83.20;;;10.63;55.06;96884.91;4915509;28;114254;-90
2022/04/08 11:32:30;;;;;;;0.80;0.70;;;10.20;83.30;;;10.65;55.29;96879.03;4932026;28;124532;-91
2022/04/08 11:35:15;;;;;;;1.00;0.80;;;10.10;83.40;;;10.66;55.49;96862.09;4930773;28;123382;-90
2022/04/08 11:38:14;;;;;;;1.23;1.00;;;10.10;83.40;;;10.67;55.49;96832.53;4926877;28;115375;-90
2022/04/08 11:41:02;;;;;;;1.07;0.97;;;10.10;83.50;;;10.62;55.44;96833.59;4911507;28;114165;-91
2022/04/08 11:44:08;;;;;;;1.73;1.10;;;10.10;83.70;;;10.57;55.54;96829.16;4922556;28;124837;-89
2022/04/08 11:46:34;;;;;;;1.10;1.00;;;10.10;84.00;;;10.55;55.88;96823.19;4925108;28;123647;-93
2022/04/08 11:49:03;;;;;;;1.37;1.00;;;10.00;84.40;;;10.52;56.05;96810.09;4918654;28;113707;-91
2022/04/08 11:51:31;;;;;;;1.13;1.00;;;10.00;84.60;;;10.54;56.46;96826.31;4933197;28;113738;-90
2022/04/08 11:54:02;;;;;;;0.93;0.83;;;10.00;84.70;;;10.58;56.19;96827.97;4913836;28;123900;-91
2022/04/08 11:56:53;;;;;;;1.00;0.90;;;10.00;84.90;;;10.60;56.56;96814.63;4930643;28;122241;-91
2022/04/08 11:59:20;;;;;;;1.20;1.10;;;10.10;85.40;;;10.60;56.52;96794.50;4935327;28;114177;-91
2022/04/08 12:01:49;;;;;;;1.30;1.00;;;10.00;85.40;;;10.63;56.73;96787.44;4919630;28;113634;-91
2022/04/08 12:04:17;;;;;;;1.30;1.20;;;10.10;85.60;;;10.69;56.69;96794.28;4937084;28;123421;-91
2022/04/08 12:06:47;;;;;;;1.00;0.90;;;10.10;85.80;;;10.73;56.83;96806.22;4906947;28;121466;-91
2022/04/08 12:09:34;;;;;;;1.30;1.10;;;10.10;85.80;;;10.76;56.68;96805.47;4919995;28;114767;-90
2022/04/08 12:12:10;;;;;;;1.93;0.90;;;10.10;85.80;;;10.73;56.94;96797.94;4914026;28;114689;-91
2022/04/08 12:14:41;;;;;;;1.60;0.90;;;10.20;86.40;;;10.70;57.29;96784.84;4910629;28;124807;-90
2022/04/08 12:17:36;;;;;;;1.30;1.07;;;10.20;86.30;;;10.71;56.87;96787.22;4926119;28;123180;-91
2022/04/08 12:23:53;;;;;;;1.67;1.27;;;10.10;86.40;;;10.64;57.50;96800.09;4925844;28;115258;-90
2022/04/08 12:30:08;;;;;;;1.10;1.00;;;10.00;86.80;;;10.50;57.70;96759.97;4934838;28;123837;-90
2022/04/08 12:32:42;;;;;;;1.40;1.10;;;10.00;87.10;;;10.48;57.88;96781.63;4916375;28;113421;-91
2022/04/08 12:35:15;;;;;;;1.83;1.10;;;10.00;87.50;;;10.46;58.05;96767.38;4937361;28;114881;-91
2022/04/08 12:37:42;;;;;;;1.10;1.00;;;9.90;88.40;;;10.51;58.18;96800.22;4916804;28;124119;-92
2022/04/08 12:40:10;;;;;;;1.33;1.07;;;10.00;87.60;;;10.51;58.40;96805.75;4932501;28;122557;-90
2022/04/08 12:42:38;;;;;;;2.20;1.30;;;10.00;87.80;;;10.45;58.54;96782.34;4933699;28;115096;-91
2022/04/08 12:45:07;;;;;;;1.13;1.03;;;9.90;89.10;;;10.39;58.32;96759.72;4911551;28;113059;-91
2022/04/08 12:47:54;;;;;;;1.40;1.20;;;9.90;89.00;;;10.37;58.41;96741.97;4936485;28;123388;-91
2022/04/08 12:50:22;;;;;;;0.90;0.80;;;9.90;89.00;;;10.35;58.58;96728.50;4930662;28;123187;-92
2022/04/08 12:56:30;;;;;;;1.80;1.23;;;9.90;89.30;;;10.30;58.65;96720.50;4920915;28;114489;-91
2022/04/08 12:58:58;;;;;;;1.17;1.07;;;9.80;89.40;;;10.33;58.49;96727.25;4930346;28;123834;-90
2022/04/08 13:01:24;;;;;;;1.53;1.40;;;9.80;89.50;;;10.36;58.76;96723.78;4897766;28;122077;-89
2022/04/08 13:04:48;;;;;;;2.70;1.27;;;9.80;89.40;;;10.34;58.71;96729.69;4898064;28;112480;-89
2022/04/08 13:07:34;;;;;;;1.10;1.00;;;9.80;89.50;;;10.35;58.70;96724.94;4932161;28;113356;-90
2022/04/08 13:10:19;;;;;;;1.00;0.90;;;9.90;89.50;;;10.37;58.31;96722.63;4936936;28;123854;-90
2022/04/08 13:12:46;;;;;;;1.33;1.03;;;9.80;89.40;;;10.38;58.71;96729.75;4927278;28;123509;-90
2022/04/08 13:15:13;;;;;;;1.30;0.90;;;9.80;89.40;;;10.39;58.44;96725.81;4913568;28;116445;-90
2022/04/08 13:18:01;;;;;;;1.30;1.20;;;9.80;89.30;;;10.40;58.48;96713.63;4900086;28;112573;-90
2022/04/08 13:20:28;;;;;;;1.60;1.20;;;9.90;89.40;;;10.32;58.49;96703.59;4910993;28;123600;-91
2022/04/08 13:23:14;;;;;;;0.90;0.87;;;9.80;89.40;;;10.28;58.64;96675.91;4931151;28;123500;-91
2022/04/08 13:25:41;;;;;;;1.93;1.20;;;9.80;89.40;;;10.28;58.46;96675.09;4931360;28;114812;-90
2022/04/08 13:28:29;;;;;;;1.10;1.00;;;9.80;89.50;;;10.31;59.05;96674.38;4927203;28;115097;-88
2022/04/08 13:31:51;;;;;;;3.47;1.10;;;9.80;89.60;;;10.32;58.86;96681.53;4875126;29;124837;-89
2022/04/08 13:34:23;;;;;;;1.57;1.20;;;9.80;89.80;;;10.33;58.59;96677.59;4866067;29;122912;-90
2022/04/08 13:36:51;;;;;;;1.63;1.10;;;9.80;89.80;;;10.32;58.79;96649.19;4871708;29;112285;-90
2022/04/08 13:43:01;;;;;;;1.40;1.10;;;9.80;89.90;;;10.35;58.57;96658.72;4877082;29;124018;-89
2022/04/08 13:49:29;;;;;;;1.10;1.00;;;9.80;90.00;;;10.34;59.01;96646.06;4875274;28;114766;-91
2022/04/08 13:52:34;;;;;;;1.30;1.20;;;9.80;89.90;;;10.33;58.70;96666.53;4840077;29;111868;-89
2022/04/08 13:55:38;;;;;;;1.07;0.97;;;9.80;90.00;;;10.33;59.11;96641.69;4864555;29;123228;-89
2022/04/08 13:59:00;;;;;;;1.33;1.23;;;9.80;90.00;;;10.32;59.14;96616.06;4863517;28;123653;-90
2022/04/08 14:01:27;;;;;;;1.97;1.10;;;9.80;90.10;;;10.35;59.33;96595.22;4872515;28;115552;-89
2022/04/08 14:04:31;;;;;;;1.53;1.10;;;9.80;90.10;;;10.41;59.24;96590.19;4851368;29;112615;-89
2022/04/08 14:07:01;;;;;;;2.57;1.30;;;9.90;90.20;;;10.40;59.46;96589.41;4865828;28;123156;-88
2022/04/08 14:09:28;;;;;;;1.53;1.37;;;9.80;90.20;;;10.43;59.34;96596.94;4898127;28;121983;-89
2022/04/08 14:11:56;;;;;;;3.00;1.77;;;9.90;90.30;;;10.51;59.82;96584.88;4928687;28;113132;-90
2022/04/08 14:14:23;;;;;;;1.97;1.60;;;9.90;90.60;;;10.63;60.04;96580.34;4907559;28;113240;-88
2022/04/08 14:17:28;;;;;;;1.93;1.70;;;10.00;90.30;;;10.71;59.54;96576.53;4900978;28;123417;-90
2022/04/08 14:19:55;;;;;;;2.13;1.50;;;10.00;90.30;;;10.73;59.81;96563.97;4926615;28;122737;-89
2022/04/08 14:26:23;;;;;;;1.40;1.30;;;10.10;90.50;;;10.84;59.67;96544.81;4924397;28;114701;-88
2022/04/08 14:28:51;;;;;;;1.77;1.37;;;10.20;90.50;;;10.85;59.80;96540.84;4924755;28;122784;-89
2022/04/08 14:32:16;;;;;;;2.13;1.50;;;10.20;90.50;;;10.88;60.17;96537.38;4891893;28;121966;-89
2022/04/08 14:35:21;;;;;;;1.30;1.20;;;10.20;90.60;;;10.88;59.79;96520.81;4924476;28;114326;-89
2022/04/08 14:37:49;;;;;;;1.30;1.20;;;10.30;90.60;;;10.91;60.04;96522.00;4922473;28;113615;-89
2022/04/08 14:40:36;;;;;;;1.20;1.10;;;10.30;90.60;;;10.94;60.11;96519.31;4923868;28;123469;-89
2022/04/08 14:43:45;;;;;;;1.17;1.07;;;10.30;90.70;;;10.96;59.95;96522.50;4908993;28;122821;-89
2022/04/08 14:46:32;;;;;;;1.30;1.20;;;10.30;90.70;;;10.97;60.22;96512.25;4917361;28;113532;-89
2022/04/08 14:49:00;;;;;;;1.50;1.40;;;10.40;90.80;;;10.97;60.44;96518.56;4909621;28;112373;-91
2022/04/08 14:51:26;;;;;;;1.23;1.03;;;10.40;90.90;;;10.98;60.62;96506.34;4930375;28;124845;-88
2022/04/08 14:54:50;;;;;;;1.80;1.60;;;10.40;91.00;;;10.99;61.24;96501.63;4928431;28;123150;-89
2022/04/08 14:57:17;;;;;;;1.67;1.23;;;10.40;91.20;;;11.02;61.58;96509.97;4922552;28;114681;-89
2022/04/08 14:59:45;;;;;;;1.30;1.20;;;10.40;91.50;;;11.06;62.30;96497.00;4929881;28;113324;-89
2022/04/08 15:02:52;;;;;;;2.10;1.57;;;10.50;91.80;;;11.14;62.79;96488.81;4913484;28;123976;-91
2022/04/08 15:05:22;;;;;;;1.63;1.50;;;10.50;92.20;;;11.23;63.34;96481.84;4916496;28;123151;-89
2022/04/08 15:08:46;;;;;;;1.93;1.40;;;10.60;92.60;;;11.34;63.48;96479.22;4898586;28;113917;-91
2022/04/08 15:11:33;;;;;;;3.73;1.30;;;10.70;93.00;;;11.49;64.01;96488.50;4900556;28;113306;-89
2022/04/08 15:15:00;;;;;;;1.80;1.30;;;10.90;93.60;;;11.66;64.72;96481.59;4905098;28;123482;-89
2022/04/08 15:17:29;;;;;;;4.60;1.87;;;11.00;94.00;;;11.88;65.34;96463.31;4911825;28;123900;-90
2022/04/08 15:23:57;;;;;;;1.77;1.07;;;11.50;94.90;;;12.38;65.26;96461.84;4918361;28;115936;-88
2022/04/08 15:26:27;;;;;;;2.37;1.07;;;11.70;94.90;;;12.53;65.83;96461.97;4890259;28;122429;-90
2022/04/08 15:29:13;;;;;;;1.10;1.00;;;11.90;95.00;;;12.65;65.35;96474.72;4894363;28;122969;-87
2022/04/08 15:32:18;;;;;;;3.07;1.20;;;12.10;94.80;;;12.73;65.36;96471.63;4907634;28;114275;-90
2022/04/08 15:35:04;;;;;;;2.13;1.10;;;12.20;94.90;;;12.85;65.12;96462.22;4901413;28;113607;-90
2022/04/08 15:37:30;;;;;;;1.00;0.90;;;12.30;94.90;;;13.02;65.18;96455.22;4872246;28;123246;-87
2022/04/08 15:40:02;;;;;;;2.87;1.00;;;12.50;94.90;;;13.19;65.13;96453.72;4897842;28;123601;-89
2022/04/08 15:42:34;;;;;;;1.37;1.10;;;12.80;94.90;;;13.39;64.79;96457.84;4892723;28;112454;-89
2022/04/08 15:45:41;;;;;;;1.53;1.00;;;12.80;94.80;;;13.58;64.24;96462.28;4903475;28;113228;-89
2022/04/08 15:48:09;;;;;;;1.93;1.10;;;13.00;94.70;;;13.72;64.03;96457.97;4886628;28;122785;-90
2022/04/08 15:54:19;;;;;;;5.80;1.00;;;13.30;94.30;;;13.98;62.76;96454.91;4904261;28;114260;-91
2022/04/08 15:56:47;;;;;;;1.20;1.10;;;13.40;93.90;;;14.05;62.52;96443.81;4875999;28;113196;-91
2022/04/08 15:59:32;;;;;;;2.30;1.17;;;13.60;93.70;;;14.11;62.48;96439.47;4893731;28;124408;-90
2022/04/08 16:01:59;;;;;;;2.17;1.10;;;13.70;93.50;;;14.17;62.12;96452.97;4899163;28;123611;-89
2022/04/08 16:04:27;;;;;;;1.70;1.07;;;13.70;93.20;;;14.19;61.68;96443.03;4888654;28;113285;-90
2022/04/08 16:06:56;;;;;;;1.97;1.30;;;13.80;93.10;;;14.23;61.44;96454.16;4891974;28;113311;-89
2022/04/08 16:10:00;;;;;;;1.57;1.20;;;13.80;92.90;;;14.23;61.11;96463.28;4909609;28;123607;-89
2022/04/08 16:12:27;;;;;;;2.90;1.27;;;13.80;92.60;;;14.26;61.07;96475.56;4878535;28;123370;-90
2022/04/08 16:15:53;;;;;;;1.57;1.07;;;13.80;92.50;;;14.26;60.73;96464.47;4905598;28;113277;-90
2022/04/08 16:18:21;;;;;;;3.00;1.10;;;13.90;92.30;;;14.27;60.29;96479.97;4917825;28;114260;-90
2022/04/08 16:21:43;;;;;;;1.90;1.10;;;13.90;92.10;;;14.26;60.33;96470.81;4922673;28;122160;-90
2022/04/08 16:24:19;;;;;;;1.10;0.90;;;13.90;92.00;;;14.28;60.31;96525.97;4916341;28;123620;-89
2022/04/08 16:26:48;;;;;;;1.50;1.20;;;13.90;92.10;;;14.22;60.09;96497.81;4889261;28;113613;-89
2022/04/08 16:29:18;;;;;;;1.47;1.30;;;11.80;90.90;;;14.07;60.11;96501.72;4891108;28;112878;-89
2022/04/08 16:31:47;;;;;;;2.30;1.50;;;15.00;92.10;;;13.91;60.08;96475.09;4905948;28;123014;-89
2022/04/08 16:34:14;;;;;;;1.43;1.00;;;13.70;91.40;;;13.80;59.95;96457.59;4902777;28;122916;-89
2022/04/08 16:36:42;;;;;;;1.90;1.70;;;13.60;91.70;;;13.69;60.01;96529.72;4895744;28;114146;-88
2022/04/08 16:39:09;;;;;;;1.70;1.60;;;13.40;91.30;;;13.53;59.83;96781.69;4920342;28;112949;-91
2022/04/08 16:41:37;;;;;;;1.83;1.53;;;13.30;91.20;;;13.18;58.26;96746.06;4885384;28;122781;-90
2022/04/08 16:44:08;;;;;;;1.47;1.27;;;12.90;90.10;;;12.76;58.39;96742.44;4925697;28;124342;-90
2022/04/08 16:46:36;;;;;;;1.40;1.30;;;10.60;88.70;;;12.40;58.77;96740.38;4908095;28;113686;-90
2022/04/08 16:49:04;;;;;;;1.50;1.40;;;12.20;90.10;;;12.07;58.49;96733.59;4927048;28;112414;-90
2022/04/08 16:51:52;;;;;;;1.40;1.30;;;11.90;90.00;;;11.85;58.85;96688.97;4915172;28;122315;-88
2022/04/08 16:54:20;;;;;;;1.27;1.17;;;11.80;89.90;;;11.68;59.09;96678.41;4897270;28;122293;-90
2022/04/08 16:56:48;;;;;;;0.90;0.80;;;11.50;90.00;;;11.55;59.40;96707.44;4912329;28;114186;-89
2022/04/08 16:59:19;;;;;;;1.30;1.10;;;11.40;90.00;;;11.38;59.62;96709.53;4883256;28;112222;-90
2022/04/08 17:01:48;;;;;;;1.10;1.00;;;11.30;90.00;;;11.21;59.23;96696.22;4913843;28;122049;-89
2022/04/08 17:04:33;;;;;;;1.00;0.90;;;11.00;89.90;;;11.06;59.78;96704.25;4912994;28;121633;-90
2022/04/08 17:07:07;;;;;;;1.00;0.90;;;10.90;90.00;;;10.90;59.48;96728.41;4925722;28;113196;-89
2022/04/08 17:09:56;;;;;;;0.90;0.90;;;10.80;90.10;;;10.75;60.11;96718.28;4917007;28;115711;-89
2022/04/08 17:12:43;;;;;;;4.83;1.03;;;10.60;90.00;;;10.64;59.82;96729.09;4940911;28;122627;-89
2022/04/08 17:15:11;;;;;;;1.00;0.90;;;10.40;90.10;;;10.54;60.12;96710.34;4920747;28;123466;-89
2022/04/08 17:17:38;;;;;;;1.20;0.93;;;10.30;90.20;;;10.52;60.07;96696.09;4927169;28;113650;-89
2022/04/08 17:20:11;;;;;;;1.00;0.90;;;10.20;90.30;;;10.54;60.25;96672.50;4913838;28;113212;-89
2022/04/08 17:22:40;;;;;;;1.53;1.20;;;10.20;90.50;;;10.56;60.15;96675.69;4931404;28;124680;-89
2022/04/08 17:25:48;;;;;;;1.20;1.10;;;10.20;90.60;;;10.59;60.55;96663.13;4901217;28;122376;-90
2022/04/08 17:28:15;;;;;;;1.30;1.10;;;10.20;90.70;;;10.59;60.60;96657.59;4919637;28;112821;-89
2022/04/08 17:34:46;;;;;;;1.20;1.10;;;10.20;90.80;;;10.64;60.53;96635.22;4916460;28;124591;-89
2022/04/08 17:37:13;;;;;;;1.30;1.20;;;10.10;90.90;;;10.67;60.56;96630.94;4913662;28;124228;-89
2022/04/08 17:39:41;;;;;;;1.40;1.30;;;11.80;91.70;;;10.71;60.58;96637.28;4909007;28;113176;-89
2022/04/08 17:42:08;;;;;;;1.60;1.20;;;12.40;92.10;;;10.74;60.79;96639.31;4933254;28;113271;-90
2022/04/08 17:44:46;;;;;;;1.60;1.30;;;10.20;91.10;;;10.76;60.31;96617.66;4934969;28;124278;-91
2022/04/08 17:47:21;;;;;;;1.23;1.13;;;10.20;91.10;;;10.77;60.55;96624.78;4912180;28;123345;-89
2022/04/08 17:50:00;;;;;;;1.43;1.33;;;10.20;91.10;;;10.78;60.85;96632.69;4930655;28;114963;-89
2022/04/08 17:52:48;;;;;;;3.23;1.40;;;10.20;91.20;;;10.77;60.54;96638.59;4931029;28;113697;-89
2022/04/08 17:55:34;;;;;;;1.53;1.43;;;10.20;91.20;;;10.77;60.37;96631.13;4933378;28;123624;-89
2022/04/08 17:58:08;;;;;;;1.33;1.20;;;10.20;91.20;;;10.78;60.84;96616.13;4915788;28;121878;-89
2022/04/08 18:00:44;;;;;;;1.90;1.40;;;10.20;91.30;;;10.79;60.91;96611.41;4899419;28;113622;-89
2022/04/08 18:03:17;;;;;;;3.37;1.47;;;10.30;91.40;;;10.78;61.09;96615.34;4931747;28;114549;-89
2022/04/08 18:05:45;;;;;;;2.20;1.40;;;10.20;91.40;;;10.77;61.01;96613.72;4911651;28;124876;-89
2022/04/08 18:08:14;;;;;;;1.87;1.60;;;10.20;91.40;;;10.74;60.90;96603.41;4913477;28;123587;-89
2022/04/08 18:10:45;;;;;;;1.97;1.30;;;10.30;91.50;;;10.72;61.15;96614.03;4927523;28;113731;-89
2022/04/08 18:13:33;;;;;;;1.60;1.30;;;10.30;91.50;;;10.70;61.01;96622.69;4913682;28;113837;-91
2022/04/08 18:16:38;;;;;;;1.70;1.40;;;10.10;91.50;;;10.67;61.43;96628.97;4915372;28;122740;-90
2022/04/08 18:19:07;;;;;;;1.43;1.30;;;10.10;91.60;;;10.64;61.46;96617.81;4913746;28;123568;-89
2022/04/08 18:22:15;;;;;;;1.57;1.47;;;10.60;91.90;;;10.63;61.37;96607.94;4916181;28;111975;-90
2022/04/08 18:25:03;;;;;;;1.80;1.70;;;10.10;91.80;;;10.60;61.85;96596.47;4900020;28;111709;-89
2022/04/08 18:27:29;;;;;;;3.40;2.30;;;10.10;91.90;;;10.48;62.16;96580.09;4916034;28;124366;-89